Indianapolis, Indiana
Traffic Map
Current Weather Conditions
Indianapolis, Indiana
Overcast Light Rain
Overcast
44°
Feels Like: 38°
Wind Chill: 38° Ceiling: 8000
Heat Index: 44° Visibility: 5mi
Dew Point: 44° Wind: 13mph
Humidity: 100% Direction: 100° (E)
Pressure: 30.06in Gusts: 0mph
Raw Report DataKIND 241554Z 10011KT 5SM -RA BR FEW005 OVC080 07/07 A3006 RMK AO2 SLP183 P0018 T00670067
Traffic Incident Summary
Active as of:
Severity:
Category:
InformationThere was an issue retrieving the traffic information for this location. Please try a different location or try again shortly.
Advertisements